createdAt,value
2017-09-25T00:00:24.853Z,83.00
2017-09-25T00:05:24.022Z,83.20
2017-09-25T00:07:50.266Z,83.30
2017-09-25T00:10:16.520Z,83.20
2017-09-25T00:12:43.550Z,83.40
2017-09-25T00:15:09.795Z,83.20
2017-09-25T00:17:36.763Z,83.50
2017-09-25T00:20:03.038Z,83.40
2017-09-25T00:22:29.274Z,83.60
2017-09-25T00:24:55.515Z,83.80
2017-09-25T00:27:21.749Z,84.00
2017-09-25T00:29:47.985Z,84.10
2017-09-25T00:32:14.226Z,83.90
2017-09-25T00:34:41.225Z,84.40
2017-09-25T00:37:07.464Z,84.30
2017-09-25T00:39:33.719Z,84.30
2017-09-25T00:42:00.257Z,84.10
2017-09-25T00:44:26.510Z,84.00
2017-09-25T00:46:53.582Z,83.80
2017-09-25T00:49:19.869Z,83.80
2017-09-25T00:51:46.114Z,83.80
2017-09-25T00:54:12.358Z,83.70
2017-09-25T00:56:39.386Z,83.70
2017-09-25T00:59:05.632Z,84.30
2017-09-25T01:01:44.196Z,83.60
2017-09-25T01:04:22.798Z,83.70
2017-09-25T01:06:49.054Z,83.70
2017-09-25T01:09:15.301Z,83.70
2017-09-25T01:11:41.548Z,83.70
2017-09-25T01:14:07.794Z,83.60
2017-09-25T01:16:34.057Z,83.70
2017-09-25T01:19:00.298Z,84.50
2017-09-25T01:21:26.582Z,83.90
2017-09-25T01:23:52.842Z,83.70
2017-09-25T01:26:19.830Z,83.60
2017-09-25T01:28:46.106Z,83.50
2017-09-25T01:31:13.098Z,83.40
2017-09-25T01:33:39.326Z,83.40
2017-09-25T01:36:05.576Z,83.40
2017-09-25T01:38:32.466Z,83.20
2017-09-25T01:40:58.702Z,83.30
2017-09-25T01:43:25.222Z,83.50
2017-09-25T01:45:51.475Z,83.30
2017-09-25T01:48:18.457Z,83.60
2017-09-25T01:50:44.714Z,83.50
2017-09-25T01:53:10.954Z,83.60
2017-09-25T01:55:37.205Z,83.40
2017-09-25T01:58:04.216Z,83.10
2017-09-25T02:00:30.455Z,83.10
2017-09-25T02:02:57.460Z,83.30
2017-09-25T02:05:23.739Z,83.50
2017-09-25T02:07:49.994Z,83.20
2017-09-25T02:10:16.979Z,83.40
2017-09-25T02:12:43.214Z,83.20
2017-09-25T02:15:09.446Z,83.20
2017-09-25T02:17:35.694Z,83.30
2017-09-25T02:20:02.148Z,83.40
2017-09-25T02:22:28.397Z,83.30
2017-09-25T02:24:54.633Z,83.60
2017-09-25T02:27:20.874Z,83.70
2017-09-25T02:29:47.878Z,83.70
2017-09-25T02:32:14.122Z,83.70
2017-09-25T02:34:40.374Z,83.70
2017-09-25T02:37:06.615Z,84.20
2017-09-25T02:39:33.582Z,83.90
2017-09-25T02:42:01.448Z,83.80
2017-09-25T02:44:27.997Z,83.70
2017-09-25T02:46:54.235Z,83.80
2017-09-25T02:49:20.551Z,83.70
2017-09-25T02:51:46.788Z,83.70
2017-09-25T02:54:13.030Z,83.70
2017-09-25T02:56:40.219Z,83.60
2017-09-25T02:59:06.448Z,83.40
2017-09-25T03:01:32.685Z,83.40
2017-09-25T03:03:58.922Z,83.40
2017-09-25T03:06:25.178Z,83.30
2017-09-25T03:08:52.144Z,83.20
2017-09-25T03:11:18.418Z,83.00
2017-09-25T03:13:44.638Z,83.50
2017-09-25T03:16:10.865Z,83.40
2017-09-25T03:18:37.110Z,83.30
2017-09-25T03:21:03.332Z,83.60
2017-09-25T03:23:29.626Z,83.60
2017-09-25T03:25:55.882Z,83.40
2017-09-25T03:28:22.119Z,83.50
2017-09-25T03:30:48.352Z,83.50
2017-09-25T03:33:14.602Z,83.50
2017-09-25T03:35:40.838Z,83.80
2017-09-25T03:38:07.075Z,83.80
2017-09-25T03:40:33.326Z,83.90
2017-09-25T03:43:00.286Z,83.80
2017-09-25T03:45:27.581Z,83.80
2017-09-25T03:47:53.850Z,83.40
2017-09-25T03:50:20.114Z,83.50
2017-09-25T03:52:46.356Z,83.20
2017-09-25T03:55:12.610Z,83.30
2017-09-25T03:57:38.844Z,83.30
2017-09-25T04:00:05.106Z,83.30
2017-09-25T04:02:31.426Z,83.30
2017-09-25T04:04:57.711Z,83.10
2017-09-25T04:07:23.933Z,83.20
2017-09-25T04:09:50.191Z,83.30
2017-09-25T04:12:16.406Z,83.30
2017-09-25T04:14:42.624Z,83.00
2017-09-25T04:17:08.871Z,83.10
2017-09-25T04:19:35.117Z,83.20
2017-09-25T04:22:01.390Z,83.10
2017-09-25T04:24:28.494Z,83.40
2017-09-25T04:26:54.738Z,83.20
2017-09-25T04:29:20.977Z,83.30
2017-09-25T04:31:47.394Z,83.10
2017-09-25T04:34:13.627Z,83.20
2017-09-25T04:36:39.870Z,83.00
2017-09-25T04:39:06.130Z,82.80
2017-09-25T04:41:32.395Z,82.90
2017-09-25T04:43:58.630Z,83.10
2017-09-25T04:46:25.282Z,83.00
2017-09-25T04:48:51.508Z,83.00
2017-09-25T04:51:17.782Z,82.90
2017-09-25T04:53:44.057Z,83.10
2017-09-25T04:56:10.287Z,83.10
2017-09-25T04:58:36.518Z,83.20
2017-09-25T05:01:02.855Z,83.30
2017-09-25T05:03:29.090Z,83.40
2017-09-25T05:05:55.330Z,83.20
2017-09-25T05:08:21.584Z,83.30
2017-09-25T05:10:47.834Z,83.40
2017-09-25T05:13:14.090Z,83.50
2017-09-25T05:15:41.105Z,83.50
2017-09-25T05:18:07.334Z,83.50
2017-09-25T05:20:33.573Z,83.40
2017-09-25T05:22:59.830Z,83.60
2017-09-25T05:25:26.065Z,83.50
2017-09-25T05:27:52.294Z,83.50
2017-09-25T05:30:18.542Z,83.30
2017-09-25T05:32:45.675Z,83.20
2017-09-25T05:35:11.921Z,83.20
2017-09-25T05:37:38.178Z,83.40
2017-09-25T05:40:04.414Z,83.30
2017-09-25T05:42:30.974Z,83.40
2017-09-25T05:44:57.210Z,83.50
2017-09-25T05:47:23.698Z,83.70
2017-09-25T05:49:49.924Z,83.70
2017-09-25T05:52:16.933Z,83.60
2017-09-25T05:54:43.161Z,83.60
2017-09-25T05:57:09.397Z,83.70
2017-09-25T05:59:35.642Z,83.80
2017-09-25T06:02:02.007Z,83.70
2017-09-25T06:04:28.233Z,83.90
2017-09-25T06:06:54.473Z,83.60
2017-09-25T06:09:20.750Z,83.50
2017-09-25T06:11:46.990Z,83.90
2017-09-25T06:14:13.310Z,83.70
2017-09-25T06:16:39.830Z,83.80
2017-09-25T06:19:06.079Z,83.60
2017-09-25T06:21:33.075Z,83.40
2017-09-25T06:23:59.333Z,83.30
2017-09-25T06:26:25.564Z,83.40
2017-09-25T06:28:51.801Z,83.50
2017-09-25T06:31:18.026Z,83.10
2017-09-25T06:33:44.266Z,83.20
2017-09-25T06:36:10.513Z,83.20
2017-09-25T06:38:36.749Z,83.20
2017-09-25T06:41:02.981Z,83.00
2017-09-25T06:43:29.275Z,83.10
2017-09-25T06:45:55.502Z,83.40
2017-09-25T06:48:22.027Z,83.30
2017-09-25T06:50:48.301Z,83.00
2017-09-25T06:53:14.555Z,82.90
2017-09-25T06:55:40.807Z,82.70
2017-09-25T06:58:07.115Z,82.60
2017-09-25T07:00:33.383Z,82.50
2017-09-25T07:02:59.627Z,82.90
2017-09-25T07:05:25.885Z,82.60
2017-09-25T07:07:52.128Z,82.70
2017-09-25T07:10:18.370Z,82.40
2017-09-25T07:12:44.618Z,81.60
2017-09-25T07:15:11.586Z,80.30
2017-09-25T07:17:37.882Z,80.30
2017-09-25T07:20:04.170Z,81.00
2017-09-25T07:22:30.418Z,81.00
2017-09-25T07:24:56.646Z,80.80
2017-09-25T07:27:22.932Z,79.40
2017-09-25T07:29:49.923Z,79.40
2017-09-25T07:32:16.159Z,79.30
2017-09-25T07:34:42.456Z,79.10
2017-09-25T07:37:08.679Z,78.40
2017-09-25T07:39:34.926Z,79.00
2017-09-25T07:42:01.224Z,78.90
2017-09-25T07:44:27.535Z,78.00
2017-09-25T07:46:53.776Z,78.80
2017-09-25T07:49:20.305Z,78.80
2017-09-25T07:51:46.562Z,78.50
2017-09-25T07:54:12.798Z,78.20
2017-09-25T07:56:39.047Z,78.60
2017-09-25T07:59:05.277Z,78.30
2017-09-25T08:01:32.118Z,78.10
2017-09-25T08:03:58.390Z,77.90
2017-09-25T08:06:24.623Z,78.20
2017-09-25T08:08:50.851Z,78.20
2017-09-25T08:11:17.127Z,77.80
2017-09-25T08:13:43.362Z,78.00
2017-09-25T08:16:09.590Z,77.70
2017-09-25T08:18:35.889Z,78.30
2017-09-25T08:21:02.234Z,78.40
2017-09-25T08:23:28.486Z,78.30
2017-09-25T08:25:54.751Z,78.80
2017-09-25T08:28:21.026Z,79.00
2017-09-25T08:30:47.266Z,78.70
2017-09-25T08:33:13.528Z,78.80
2017-09-25T08:35:39.787Z,78.40
2017-09-25T08:38:06.015Z,78.80
2017-09-25T08:40:32.277Z,78.70
2017-09-25T08:42:58.514Z,77.90
2017-09-25T08:45:24.793Z,78.50
2017-09-25T08:47:51.838Z,79.20
2017-09-25T08:50:18.316Z,79.10
2017-09-25T08:52:44.552Z,78.80
2017-09-25T08:55:10.807Z,78.80
2017-09-25T08:57:37.043Z,78.80
2017-09-25T09:00:03.282Z,78.90
2017-09-25T09:02:29.532Z,78.90
2017-09-25T09:04:55.764Z,79.10
2017-09-25T09:07:22.023Z,79.10
2017-09-25T09:09:48.282Z,78.80
2017-09-25T09:12:14.519Z,78.50
2017-09-25T09:14:40.748Z,78.00
2017-09-25T09:17:07.012Z,78.30
2017-09-25T09:19:33.974Z,78.40
2017-09-25T09:22:00.211Z,78.30
2017-09-25T09:24:26.471Z,78.80
2017-09-25T09:26:52.708Z,78.20
2017-09-25T09:29:18.970Z,78.30
2017-09-25T09:31:45.223Z,78.20
2017-09-25T09:34:11.454Z,78.30
2017-09-25T09:36:37.694Z,78.70
2017-09-25T09:39:03.979Z,78.70
2017-09-25T09:41:30.222Z,79.00
2017-09-25T09:43:56.486Z,79.40
2017-09-25T09:46:22.739Z,80.10
2017-09-25T09:48:48.968Z,80.30
2017-09-25T09:51:15.887Z,79.90
2017-09-25T09:53:42.146Z,79.90
2017-09-25T09:56:08.390Z,79.60
2017-09-25T09:58:34.623Z,78.70
2017-09-25T10:01:00.887Z,79.20
2017-09-25T10:03:27.130Z,78.70
2017-09-25T10:05:54.096Z,77.80
2017-09-25T10:08:20.361Z,77.70
2017-09-25T10:10:46.591Z,78.10
2017-09-25T10:13:13.403Z,77.50
2017-09-25T10:15:39.646Z,77.90
2017-09-25T10:18:05.881Z,77.90
2017-09-25T10:20:32.874Z,79.10
2017-09-25T10:22:59.144Z,79.00
2017-09-25T10:25:25.551Z,78.30
2017-09-25T10:27:51.960Z,78.30
2017-09-25T10:30:18.234Z,78.30
2017-09-25T10:32:44.594Z,78.20
2017-09-25T10:35:11.902Z,78.10
2017-09-25T10:37:38.165Z,78.30
2017-09-25T10:40:04.402Z,78.10
2017-09-25T10:42:30.635Z,78.00
2017-09-25T10:44:56.878Z,77.30
2017-09-25T10:47:23.118Z,76.80
2017-09-25T10:49:49.371Z,76.90
2017-09-25T10:52:15.920Z,77.00
2017-09-25T10:54:42.154Z,77.00
2017-09-25T10:57:08.382Z,76.90
2017-09-25T10:59:34.634Z,77.20
2017-09-25T11:02:00.921Z,77.50
2017-09-25T11:04:27.198Z,77.40
2017-09-25T11:06:53.466Z,77.10
2017-09-25T11:09:19.702Z,77.20
2017-09-25T11:11:46.070Z,77.20
2017-09-25T11:14:12.326Z,76.30
2017-09-25T11:16:38.559Z,76.00
2017-09-25T11:19:04.822Z,75.80
2017-09-25T11:21:31.091Z,75.80
2017-09-25T11:23:57.377Z,74.60
2017-09-25T11:26:23.662Z,75.20
2017-09-25T11:28:49.918Z,74.40
2017-09-25T11:31:16.890Z,73.40
2017-09-25T11:33:43.120Z,73.30
2017-09-25T11:36:09.369Z,73.20
2017-09-25T11:38:35.589Z,73.90
2017-09-25T11:41:01.910Z,74.50
2017-09-25T11:43:28.167Z,74.00
2017-09-25T11:45:54.403Z,73.90
2017-09-25T11:48:20.635Z,73.90
2017-09-25T11:50:46.915Z,73.80
2017-09-25T11:53:13.402Z,73.90
2017-09-25T11:55:39.658Z,73.60
2017-09-25T11:58:05.910Z,74.00
2017-09-25T12:00:32.890Z,74.90
2017-09-25T12:03:06.842Z,75.10
2017-09-25T12:05:33.766Z,75.50
2017-09-25T12:08:00.958Z,74.80
2017-09-25T12:10:28.234Z,73.10
2017-09-25T12:12:54.539Z,72.10
2017-09-25T12:15:20.787Z,71.20
2017-09-25T12:17:47.040Z,71.90
2017-09-25T12:20:13.331Z,73.10
2017-09-25T12:22:40.510Z,72.70
2017-09-25T12:25:07.510Z,72.50
2017-09-25T12:27:33.746Z,72.50
2017-09-25T12:29:59.982Z,72.10
2017-09-25T12:32:26.443Z,71.20
2017-09-25T12:34:52.854Z,70.90
2017-09-25T12:37:19.095Z,71.10
2017-09-25T12:39:45.354Z,71.80
2017-09-25T12:42:11.766Z,71.90
2017-09-25T12:44:38.008Z,72.00
2017-09-25T12:47:04.268Z,72.00
2017-09-25T12:49:30.514Z,71.70
2017-09-25T12:51:56.746Z,71.90
2017-09-25T12:54:23.291Z,72.40
2017-09-25T12:56:49.520Z,72.50
2017-09-25T12:59:15.786Z,71.60
2017-09-25T13:01:42.069Z,71.00
2017-09-25T13:04:08.316Z,70.70
2017-09-25T13:06:34.546Z,71.30
2017-09-25T13:09:00.786Z,70.60
2017-09-25T13:11:27.007Z,70.50
2017-09-25T13:13:53.226Z,69.80
2017-09-25T13:16:19.478Z,71.20
2017-09-25T13:18:45.710Z,71.30
2017-09-25T13:21:11.942Z,71.40
2017-09-25T13:23:38.183Z,71.60
2017-09-25T13:26:04.410Z,71.40
2017-09-25T13:28:30.724Z,71.70
2017-09-25T13:30:57.198Z,71.50
2017-09-25T13:33:23.510Z,71.60
2017-09-25T13:35:50.004Z,71.70
2017-09-25T13:38:16.352Z,71.90
2017-09-25T13:40:42.651Z,71.10
2017-09-25T13:43:09.035Z,71.00
2017-09-25T13:45:35.282Z,70.90
2017-09-25T13:48:01.557Z,69.80
2017-09-25T13:50:27.866Z,71.50
2017-09-25T13:52:54.126Z,71.80
2017-09-25T13:55:20.711Z,71.00
2017-09-25T13:57:46.943Z,70.40
2017-09-25T14:02:45.151Z,68.20
2017-09-25T14:05:11.386Z,66.90
2017-09-25T14:07:37.686Z,67.80
2017-09-25T14:10:03.958Z,68.70
2017-09-25T14:12:30.193Z,69.20
2017-09-25T14:14:56.474Z,69.90
2017-09-25T14:17:22.702Z,70.40
2017-09-25T14:19:48.971Z,70.40
2017-09-25T14:22:15.234Z,70.70
2017-09-25T14:24:41.490Z,71.70
2017-09-25T14:27:07.743Z,71.90
2017-09-25T14:29:34.010Z,73.30
2017-09-25T14:32:00.242Z,73.20
2017-09-25T14:34:26.474Z,73.90
2017-09-25T14:36:52.726Z,75.00
2017-09-25T14:39:19.774Z,75.90
2017-09-25T14:41:46.034Z,75.80
2017-09-25T14:44:12.282Z,76.20
2017-09-25T14:46:38.518Z,76.50
2017-09-25T14:49:04.735Z,76.70
2017-09-25T14:51:31.010Z,77.00
2017-09-25T14:53:57.246Z,77.20
2017-09-25T14:56:23.746Z,77.40
2017-09-25T14:58:50.014Z,77.50
2017-09-25T15:01:16.286Z,77.60
2017-09-25T15:03:42.579Z,77.80
2017-09-25T15:06:08.833Z,78.20
2017-09-25T15:08:35.058Z,78.60
2017-09-25T15:11:01.315Z,78.60
2017-09-25T15:13:27.562Z,78.60
2017-09-25T15:15:53.791Z,78.60
2017-09-25T15:18:20.079Z,78.80
2017-09-25T15:20:47.132Z,78.40
2017-09-25T15:23:13.380Z,78.40
2017-09-25T15:25:39.631Z,78.40
2017-09-25T15:28:05.890Z,78.90
2017-09-25T15:30:32.300Z,78.00
2017-09-25T15:32:58.555Z,77.80
2017-09-25T15:35:24.849Z,78.30
2017-09-25T15:37:51.099Z,78.20
2017-09-25T15:40:17.335Z,78.20
2017-09-25T15:42:43.601Z,78.10
2017-09-25T15:45:09.854Z,78.00
2017-09-25T15:47:36.834Z,78.20
2017-09-25T15:50:03.091Z,78.20
2017-09-25T15:52:29.343Z,77.70
2017-09-25T15:54:55.599Z,77.80
2017-09-25T15:57:22.153Z,77.70
2017-09-25T15:59:48.398Z,78.10
2017-09-25T16:02:16.166Z,77.70
2017-09-25T16:04:42.438Z,77.60
2017-09-25T16:07:08.674Z,77.70
2017-09-25T16:09:34.934Z,77.60
2017-09-25T16:12:01.637Z,77.60
2017-09-25T16:14:28.668Z,77.70
2017-09-25T16:16:54.933Z,78.10
2017-09-25T16:19:22.865Z,77.90
2017-09-25T16:21:49.105Z,77.50
2017-09-25T16:24:15.332Z,77.60
2017-09-25T16:26:41.606Z,77.50
2017-09-25T16:29:07.846Z,77.60
2017-09-25T16:31:34.158Z,77.80
2017-09-25T16:34:01.175Z,78.40
2017-09-25T16:36:27.482Z,78.30
2017-09-25T16:38:53.826Z,78.40
2017-09-25T16:41:20.103Z,78.40
2017-09-25T16:43:46.498Z,79.00
2017-09-25T16:46:12.850Z,78.70
2017-09-25T16:48:39.170Z,79.70
2017-09-25T16:51:05.400Z,78.90
2017-09-25T16:53:31.668Z,78.80
2017-09-25T16:55:58.014Z,79.20
2017-09-25T16:58:24.535Z,79.40
2017-09-25T17:00:50.783Z,79.10
2017-09-25T17:03:17.126Z,79.00
2017-09-25T17:05:43.382Z,79.10
2017-09-25T17:08:09.618Z,78.70
2017-09-25T17:10:35.911Z,78.40
2017-09-25T17:13:02.294Z,78.50
2017-09-25T17:15:28.557Z,78.30
2017-09-25T17:17:54.878Z,78.40
2017-09-25T17:20:21.166Z,78.10
2017-09-25T17:22:47.431Z,78.30
2017-09-25T17:25:13.694Z,78.20
2017-09-25T17:27:39.930Z,78.00
2017-09-25T17:30:06.202Z,77.80
2017-09-25T17:32:33.240Z,76.80
2017-09-25T17:34:59.550Z,76.80
2017-09-25T17:37:26.542Z,76.90
2017-09-25T17:39:52.795Z,76.90
2017-09-25T17:42:19.035Z,77.30
2017-09-25T17:44:47.103Z,76.60
2017-09-25T17:47:13.387Z,77.20
2017-09-25T17:49:39.657Z,77.00
2017-09-25T17:52:05.944Z,77.50
2017-09-25T17:54:33.009Z,78.20
2017-09-25T17:56:59.259Z,78.10
2017-09-25T17:59:26.115Z,78.30
2017-09-25T18:01:52.382Z,78.60
2017-09-25T18:04:18.660Z,78.70
2017-09-25T18:06:44.895Z,78.20
2017-09-25T18:09:11.193Z,78.60
2017-09-25T18:11:37.422Z,78.50
2017-09-25T18:14:03.667Z,78.50
2017-09-25T18:16:29.966Z,78.30
2017-09-25T18:18:56.219Z,78.00
2017-09-25T18:21:22.471Z,77.50
2017-09-25T18:23:49.742Z,77.00
2017-09-25T18:26:15.982Z,76.50
2017-09-25T18:28:42.256Z,76.60
2017-09-25T18:31:08.537Z,76.20
2017-09-25T18:33:34.819Z,76.00
2017-09-25T18:36:01.073Z,75.80
2017-09-25T18:38:27.451Z,76.10
2017-09-25T18:40:53.798Z,75.80
2017-09-25T18:43:20.058Z,75.70
2017-09-25T18:45:46.400Z,75.90
2017-09-25T18:48:13.437Z,76.10
2017-09-25T18:50:39.831Z,76.00
2017-09-25T18:53:06.183Z,75.90
2017-09-25T18:55:33.258Z,76.00
2017-09-25T18:57:59.496Z,76.00
2017-09-25T19:00:26.092Z,75.60
2017-09-25T19:02:53.369Z,75.40
2017-09-25T19:05:19.695Z,75.60
2017-09-25T19:07:46.280Z,75.90
2017-09-25T19:10:12.552Z,75.90
2017-09-25T19:12:38.931Z,76.50
2017-09-25T19:15:05.503Z,76.40
2017-09-25T19:17:33.526Z,76.20
2017-09-25T19:20:00.665Z,76.10
2017-09-25T19:22:27.866Z,76.40
2017-09-25T19:24:54.199Z,76.30
2017-09-25T19:27:22.018Z,75.90
2017-09-25T19:29:48.523Z,76.50
2017-09-25T19:32:14.846Z,76.40
2017-09-25T19:34:42.602Z,76.20
2017-09-25T19:37:08.986Z,76.20
2017-09-25T19:39:35.333Z,76.10
2017-09-25T19:42:01.706Z,76.40
2017-09-25T19:44:28.125Z,76.10
2017-09-25T19:46:54.382Z,76.10
2017-09-25T19:49:22.596Z,76.20
2017-09-25T19:51:48.960Z,76.40
2017-09-25T19:54:16.151Z,76.30
2017-09-25T19:56:43.491Z,76.40
2017-09-25T19:59:09.799Z,76.20
2017-09-25T20:01:36.441Z,75.90
2017-09-25T20:04:02.787Z,75.80
2017-09-25T20:06:29.119Z,75.40
2017-09-25T20:08:55.372Z,75.90
2017-09-25T20:11:21.655Z,75.60
2017-09-25T20:13:50.915Z,75.60
2017-09-25T20:16:22.919Z,75.50
2017-09-25T20:18:49.217Z,75.50
2017-09-25T20:21:15.498Z,75.90
2017-09-25T20:23:42.503Z,76.10
2017-09-25T20:26:08.763Z,76.00
2017-09-25T20:28:35.105Z,76.40
2017-09-25T20:31:01.351Z,76.10
2017-09-25T20:33:27.643Z,76.10
2017-09-25T20:35:54.853Z,76.50
2017-09-25T20:38:21.908Z,76.00
2017-09-25T20:40:50.706Z,75.80
2017-09-25T20:43:16.958Z,75.70
2017-09-25T20:45:43.194Z,75.90
2017-09-25T20:48:10.426Z,76.20
2017-09-25T20:50:36.778Z,76.00
2017-09-25T20:53:03.378Z,76.20
2017-09-25T20:55:29.685Z,76.10
2017-09-25T20:57:55.953Z,75.80
2017-09-25T21:00:22.200Z,76.10
2017-09-25T21:02:48.809Z,76.20
2017-09-25T21:05:15.859Z,75.90
2017-09-25T21:07:42.117Z,75.80
2017-09-25T21:10:08.374Z,76.30
2017-09-25T21:12:34.634Z,76.00
2017-09-25T21:15:00.895Z,76.60
2017-09-25T21:17:27.167Z,76.50
2017-09-25T21:19:53.420Z,76.90
2017-09-25T21:22:19.649Z,77.30
2017-09-25T21:24:45.901Z,77.10
2017-09-25T21:27:18.254Z,77.10
2017-09-25T21:29:44.530Z,77.30
2017-09-25T21:32:11.330Z,76.80
2017-09-25T21:34:37.614Z,77.10
2017-09-25T21:37:03.859Z,76.80
2017-09-25T21:39:30.142Z,76.80
2017-09-25T21:41:56.410Z,76.60
2017-09-25T21:44:22.633Z,76.30
2017-09-25T21:46:48.891Z,76.60
2017-09-25T21:49:15.147Z,76.60
2017-09-25T21:51:41.389Z,76.20
2017-09-25T21:54:07.630Z,76.50
2017-09-25T21:56:34.650Z,76.60
2017-09-25T21:59:00.974Z,76.40
2017-09-25T22:01:27.244Z,76.70
2017-09-25T22:03:53.774Z,77.10
2017-09-25T22:06:20.042Z,77.50
2017-09-25T22:08:47.009Z,77.80
2017-09-25T22:11:15.190Z,77.70
2017-09-25T22:13:42.440Z,77.50
2017-09-25T22:16:08.754Z,77.70
2017-09-25T22:18:35.027Z,77.40
2017-09-25T22:21:01.254Z,77.30
2017-09-25T22:23:27.548Z,77.00
2017-09-25T22:25:53.818Z,77.20
2017-09-25T22:28:20.070Z,77.20
2017-09-25T22:30:46.325Z,77.30
2017-09-25T22:33:13.338Z,77.00
2017-09-25T22:35:39.698Z,77.00
2017-09-25T22:38:05.966Z,77.10
2017-09-25T22:40:32.314Z,76.60
2017-09-25T22:43:00.530Z,77.10
2017-09-25T22:45:26.808Z,77.20
2017-09-25T22:47:53.077Z,77.00
2017-09-25T22:50:19.314Z,77.40
2017-09-25T22:52:45.565Z,78.20
2017-09-25T22:55:11.850Z,77.90
2017-09-25T22:57:38.098Z,77.20
2017-09-25T23:00:04.366Z,76.70
2017-09-25T23:02:30.624Z,77.40
2017-09-25T23:05:02.651Z,77.50
2017-09-25T23:07:28.890Z,77.70
2017-09-25T23:09:56.174Z,77.70
2017-09-25T23:12:22.417Z,77.40
2017-09-25T23:14:48.661Z,77.70
2017-09-25T23:17:14.934Z,77.30
2017-09-25T23:19:41.178Z,77.40
2017-09-25T23:22:07.406Z,77.10
2017-09-25T23:24:33.682Z,76.80
2017-09-25T23:26:59.934Z,76.90
2017-09-25T23:29:26.225Z,76.80
2017-09-25T23:31:55.486Z,77.00
2017-09-25T23:34:21.734Z,76.90
2017-09-25T23:36:48.007Z,76.80
2017-09-25T23:39:14.309Z,77.00
2017-09-25T23:41:40.615Z,77.10
2017-09-25T23:44:06.923Z,76.70
2017-09-25T23:46:33.203Z,76.80
2017-09-25T23:48:59.482Z,77.10
2017-09-25T23:51:25.746Z,77.00
2017-09-25T23:53:52.783Z,77.20
2017-09-25T23:56:19.026Z,77.40
2017-09-25T23:58:45.258Z,77.00
